Time;durP1;ratioP1;P1;durP2;ratioP2;P2;SDS_P1;SDS_P2;PMS_P1;PMS_P2;Temp;Humidity;BMP_temperature;BMP_pressure;BME280_temperature;BME280_humidity;BME280_pressure;Samples;Min_cycle;Max_cycle;Signal;HPM_P1;HPM_P2
2023/12/08 00:00:09;;;;;;;71.15;20.83;;;;;;;;;;5052167;28;20029;-65
2023/12/08 00:02:35;;;;;;;86.78;28.13;;;;;;;;;;5052214;28;20438;-66
2023/12/08 00:05:00;;;;;;;103.47;24.30;;;;;;;;;;5052186;28;20025;-66
2023/12/08 00:07:26;;;;;;;94.45;28.15;;;;;;;;;;5052258;28;20071;-66
2023/12/08 00:09:51;;;;;;;96.47;25.63;;;;;;;;;;5052218;28;20092;-66
2023/12/08 00:12:17;;;;;;;82.88;24.27;;;;;;;;;;5052048;28;20040;-66
2023/12/08 00:14:43;;;;;;;61.22;21.45;;;;;;;;;;5051694;28;20060;-66
2023/12/08 00:17:09;;;;;;;88.13;26.25;;;;;;;;;;5051438;28;20029;-66
2023/12/08 00:19:35;;;;;;;62.85;20.85;;;;;;;;;;5051454;28;20043;-66
2023/12/08 00:22:00;;;;;;;99.55;28.88;;;;;;;;;;5051569;28;20347;-66
2023/12/08 00:24:25;;;;;;;109.53;30.70;;;;;;;;;;5051529;28;20017;-65
2023/12/08 00:26:51;;;;;;;103.97;28.98;;;;;;;;;;5051774;28;20482;-66
2023/12/08 00:29:19;;;;;;;82.85;28.30;;;;;;;;;;5050444;28;20025;-67
2023/12/08 00:31:45;;;;;;;86.32;24.48;;;;;;;;;;5051909;28;20061;-66
2023/12/08 00:34:11;;;;;;;73.32;24.48;;;;;;;;;;5053025;28;20548;-67
2023/12/08 00:36:37;;;;;;;84.35;24.00;;;;;;;;;;5055484;28;20025;-67
2023/12/08 00:39:02;;;;;;;84.55;26.98;;;;;;;;;;5055626;28;20036;-67
2023/12/08 00:41:28;;;;;;;98.43;30.23;;;;;;;;;;5045545;28;20383;-66
2023/12/08 00:43:53;;;;;;;101.95;28.38;;;;;;;;;;5075483;28;20470;-66
2023/12/08 00:46:19;;;;;;;103.47;28.90;;;;;;;;;;5072875;28;20385;-66
2023/12/08 00:48:44;;;;;;;88.68;26.92;;;;;;;;;;5055515;28;20040;-67
2023/12/08 00:51:12;;;;;;;103.32;28.77;;;;;;;;;;5055454;28;20059;-66
2023/12/08 00:53:39;;;;;;;91.88;26.73;;;;;;;;;;5055151;28;20402;-66
2023/12/08 00:56:04;;;;;;;92.50;25.52;;;;;;;;;;5055377;28;20041;-67
2023/12/08 00:58:30;;;;;;;98.78;28.17;;;;;;;;;;5055077;28;20036;-66
2023/12/08 01:00:55;;;;;;;95.57;29.65;;;;;;;;;;5055042;28;20033;-65
2023/12/08 01:03:21;;;;;;;100.85;29.95;;;;;;;;;;5055276;28;20029;-66
2023/12/08 01:05:47;;;;;;;92.60;26.23;;;;;;;;;;5055307;28;20033;-67
2023/12/08 01:08:12;;;;;;;84.20;27.08;;;;;;;;;;5055112;28;20116;-67
2023/12/08 01:10:37;;;;;;;60.58;20.42;;;;;;;;;;5055024;28;20499;-67
2023/12/08 01:13:03;;;;;;;72.88;23.00;;;;;;;;;;5054525;28;20029;-67
2023/12/08 01:15:28;;;;;;;73.72;23.20;;;;;;;;;;5054929;28;20477;-66
2023/12/08 01:17:54;;;;;;;89.68;27.45;;;;;;;;;;5054905;28;20074;-67
2023/12/08 01:20:19;;;;;;;42.10;18.65;;;;;;;;;;5054908;28;20053;-66
2023/12/08 01:22:44;;;;;;;67.95;20.38;;;;;;;;;;5054824;28;20051;-66
2023/12/08 01:25:10;;;;;;;71.35;21.92;;;;;;;;;;5054813;28;20049;-66
2023/12/08 01:27:35;;;;;;;112.70;29.65;;;;;;;;;;5054681;28;20490;-66
2023/12/08 01:30:01;;;;;;;60.17;17.10;;;;;;;;;;5054654;28;20028;-66
2023/12/08 01:32:26;;;;;;;96.32;23.88;;;;;;;;;;5054670;28;20045;-66
2023/12/08 01:34:52;;;;;;;97.28;26.83;;;;;;;;;;5054546;28;20036;-66
2023/12/08 01:37:17;;;;;;;90.55;26.25;;;;;;;;;;5054460;28;20033;-67
2023/12/08 01:39:42;;;;;;;94.40;27.42;;;;;;;;;;5054530;28;20471;-67
2023/12/08 01:42:09;;;;;;;87.50;24.95;;;;;;;;;;5037838;28;20079;-66
2023/12/08 01:44:35;;;;;;;35.88;12.30;;;;;;;;;;5034285;28;20037;-66
2023/12/08 01:47:00;;;;;;;82.68;23.90;;;;;;;;;;5040392;28;20017;-66
2023/12/08 01:49:26;;;;;;;73.57;21.25;;;;;;;;;;5054375;28;20029;-67
2023/12/08 01:51:51;;;;;;;82.15;23.60;;;;;;;;;;5054283;28;20425;-66
2023/12/08 01:54:17;;;;;;;88.20;23.02;;;;;;;;;;5054169;28;20045;-66
2023/12/08 01:56:42;;;;;;;38.55;11.68;;;;;;;;;;5052660;28;20382;-66
2023/12/08 01:59:08;;;;;;;63.17;19.27;;;;;;;;;;5054051;28;20052;-66
2023/12/08 02:01:34;;;;;;;81.32;22.38;;;;;;;;;;5054280;28;20051;-65
2023/12/08 02:04:00;;;;;;;50.55;18.42;;;;;;;;;;5054198;28;20103;-66
2023/12/08 02:06:26;;;;;;;70.63;20.10;;;;;;;;;;5053949;28;20112;-66
2023/12/08 02:08:51;;;;;;;66.93;20.58;;;;;;;;;;5053825;28;20159;-66
2023/12/08 02:11:18;;;;;;;73.85;22.60;;;;;;;;;;5053719;28;20025;-66
2023/12/08 02:13:43;;;;;;;63.22;20.10;;;;;;;;;;5053855;28;20090;-66
2023/12/08 02:16:24;;;;;;;53.13;17.83;;;;;;;;;;5052712;28;20025;-66
2023/12/08 02:18:50;;;;;;;;;;;;;;;;;;5052837;28;20339;-66
2023/12/08 02:21:16;;;;;;;55.17;17.83;;;;;;;;;;5053763;28;19966;-66
2023/12/08 02:23:48;;;;;;;38.72;14.02;;;;;;;;;;5053862;28;20128;-66
2023/12/08 02:26:14;;;;;;;40.78;16.13;;;;;;;;;;5053327;28;20060;-65
2023/12/08 02:28:39;;;;;;;33.47;13.15;;;;;;;;;;5053686;28;20032;-66
2023/12/08 02:31:11;;;;;;;44.13;17.17;;;;;;;;;;5053297;28;20037;-66
2023/12/08 02:33:37;;;;;;;36.30;14.43;;;;;;;;;;5053454;28;20021;-66
2023/12/08 02:36:04;;;;;;;49.33;17.88;;;;;;;;;;5046711;28;20175;-66
2023/12/08 02:38:32;;;;;;;45.00;16.65;;;;;;;;;;5033057;28;20045;-66
2023/12/08 02:40:57;;;;;;;65.95;19.50;;;;;;;;;;5033237;28;20034;-66
2023/12/08 02:43:23;;;;;;;34.55;14.05;;;;;;;;;;5033380;28;20021;-66
2023/12/08 02:45:48;;;;;;;49.45;18.42;;;;;;;;;;5033503;28;20033;-66
2023/12/08 02:48:14;;;;;;;59.17;19.05;;;;;;;;;;5050330;28;20056;-65
2023/12/08 02:50:40;;;;;;;53.13;17.08;;;;;;;;;;5053053;28;20025;-66
2023/12/08 02:53:06;;;;;;;47.08;17.10;;;;;;;;;;5052766;28;20099;-66
2023/12/08 02:55:31;;;;;;;48.75;16.67;;;;;;;;;;5053165;28;20024;-67
2023/12/08 02:57:57;;;;;;;49.88;18.92;;;;;;;;;;5052532;28;20033;-66
2023/12/08 03:00:22;;;;;;;49.90;19.70;;;;;;;;;;5053164;28;20032;-66
2023/12/08 03:02:47;;;;;;;60.47;20.10;;;;;;;;;;5052848;28;20051;-65
2023/12/08 03:05:13;;;;;;;55.35;20.63;;;;;;;;;;5053061;28;20028;-66
2023/12/08 03:07:38;;;;;;;58.03;20.38;;;;;;;;;;5052642;28;20028;-67
2023/12/08 03:10:05;;;;;;;53.25;18.48;;;;;;;;;;5052786;28;20561;-66
2023/12/08 03:12:30;;;;;;;50.97;19.85;;;;;;;;;;5052767;28;20111;-67
2023/12/08 03:14:55;;;;;;;62.13;22.98;;;;;;;;;;5052719;28;20105;-67
2023/12/08 03:17:21;;;;;;;66.80;21.05;;;;;;;;;;5052581;28;20033;-67
2023/12/08 03:19:47;;;;;;;65.60;22.60;;;;;;;;;;5052544;28;20032;-66
2023/12/08 03:22:12;;;;;;;79.70;23.63;;;;;;;;;;5052691;28;20033;-66
2023/12/08 03:24:38;;;;;;;64.10;21.60;;;;;;;;;;5052710;28;20048;-66
2023/12/08 03:27:03;;;;;;;77.05;24.35;;;;;;;;;;5052709;28;20031;-67
2023/12/08 03:29:29;;;;;;;50.63;19.60;;;;;;;;;;5051215;28;20423;-66
2023/12/08 03:31:54;;;;;;;92.90;26.27;;;;;;;;;;5052377;28;20021;-67
2023/12/08 03:34:20;;;;;;;97.10;28.35;;;;;;;;;;5052640;28;20033;-67
2023/12/08 03:36:45;;;;;;;98.35;27.65;;;;;;;;;;5050709;28;20040;-67
2023/12/08 03:39:11;;;;;;;93.25;25.77;;;;;;;;;;5052466;28;20445;-66
2023/12/08 03:41:36;;;;;;;79.72;23.58;;;;;;;;;;5040403;28;20529;-66
2023/12/08 03:44:01;;;;;;;97.63;26.42;;;;;;;;;;5032462;28;20053;-66
2023/12/08 03:46:27;;;;;;;93.15;29.33;;;;;;;;;;5034876;28;20029;-67
2023/12/08 03:48:52;;;;;;;69.35;19.50;;;;;;;;;;5052290;28;20222;-67
2023/12/08 03:51:18;;;;;;;88.00;25.85;;;;;;;;;;5052097;28;20029;-66
2023/12/08 03:53:43;;;;;;;93.10;26.27;;;;;;;;;;5052106;28;20045;-67
2023/12/08 03:56:09;;;;;;;100.97;27.80;;;;;;;;;;5052359;28;20415;-66
2023/12/08 03:58:34;;;;;;;74.53;25.20;;;;;;;;;;5052167;28;20028;-67
2023/12/08 04:00:59;;;;;;;38.53;13.73;;;;;;;;;;5050879;28;20033;-67
2023/12/08 04:03:25;;;;;;;93.38;25.85;;;;;;;;;;5052198;28;20043;-67
2023/12/08 04:05:50;;;;;;;48.38;16.70;;;;;;;;;;5051989;28;20052;-66
2023/12/08 04:08:16;;;;;;;97.32;27.83;;;;;;;;;;5052160;28;20021;-66
2023/12/08 04:10:42;;;;;;;45.58;16.30;;;;;;;;;;5056042;28;20033;-66
2023/12/08 04:13:08;;;;;;;65.82;21.05;;;;;;;;;;5056150;28;20086;-66
2023/12/08 04:15:33;;;;;;;71.63;24.63;;;;;;;;;;5056145;28;20458;-66
2023/12/08 04:17:59;;;;;;;74.70;24.98;;;;;;;;;;5054499;28;20032;-66
2023/12/08 04:20:24;;;;;;;80.80;25.15;;;;;;;;;;5055728;28;20371;-66
2023/12/08 04:22:49;;;;;;;84.72;26.27;;;;;;;;;;5056022;28;20508;-66
2023/12/08 04:25:15;;;;;;;99.75;27.80;;;;;;;;;;5055956;28;20088;-68
2023/12/08 04:27:40;;;;;;;83.22;24.05;;;;;;;;;;5055962;28;20025;-66
2023/12/08 04:30:06;;;;;;;90.57;26.50;;;;;;;;;;5055737;28;20529;-67
2023/12/08 04:32:32;;;;;;;64.53;22.30;;;;;;;;;;5055812;28;20386;-66
2023/12/08 04:34:58;;;;;;;62.33;22.65;;;;;;;;;;5055542;28;20021;-67
2023/12/08 04:37:23;;;;;;;75.30;22.98;;;;;;;;;;5037621;28;20114;-67
2023/12/08 04:39:49;;;;;;;65.70;20.70;;;;;;;;;;5035725;28;20017;-66
2023/12/08 04:42:15;;;;;;;72.43;22.70;;;;;;;;;;5035530;28;20021;-67
2023/12/08 04:44:41;;;;;;;80.63;23.08;;;;;;;;;;5035630;28;20118;-66
2023/12/08 04:47:06;;;;;;;100.40;30.50;;;;;;;;;;5043412;28;20099;-67
2023/12/08 04:49:32;;;;;;;89.88;26.80;;;;;;;;;;5055197;28;20028;-66
2023/12/08 04:51:57;;;;;;;99.97;28.48;;;;;;;;;;5054021;28;20029;-66
2023/12/08 04:54:22;;;;;;;95.95;27.73;;;;;;;;;;5055325;28;20033;-66
2023/12/08 04:56:48;;;;;;;77.60;22.02;;;;;;;;;;5055187;28;20053;-66
2023/12/08 04:59:13;;;;;;;85.35;24.60;;;;;;;;;;5055320;28;20035;-67
2023/12/08 05:01:38;;;;;;;92.00;27.30;;;;;;;;;;5055317;28;20020;-66
2023/12/08 05:04:04;;;;;;;92.55;30.15;;;;;;;;;;5055045;28;20025;-66
2023/12/08 05:06:29;;;;;;;103.28;28.50;;;;;;;;;;5055207;28;20032;-66
2023/12/08 05:08:55;;;;;;;92.88;27.85;;;;;;;;;;5054905;28;20021;-66
2023/12/08 05:11:21;;;;;;;66.57;22.75;;;;;;;;;;5055114;28;20074;-66
2023/12/08 05:13:47;;;;;;;63.10;19.98;;;;;;;;;;5055140;28;20025;-66
2023/12/08 05:16:12;;;;;;;80.47;25.85;;;;;;;;;;5055063;28;20375;-66
2023/12/08 05:18:38;;;;;;;87.15;27.13;;;;;;;;;;5054657;28;20029;-66
2023/12/08 05:21:04;;;;;;;86.30;26.77;;;;;;;;;;5054594;28;20127;-66
2023/12/08 05:23:29;;;;;;;106.18;29.63;;;;;;;;;;5054898;28;20104;-66
2023/12/08 05:25:55;;;;;;;78.40;25.35;;;;;;;;;;5054803;28;20462;-66
2023/12/08 05:28:20;;;;;;;97.07;26.67;;;;;;;;;;5054734;28;20029;-66
2023/12/08 05:30:46;;;;;;;99.22;27.08;;;;;;;;;;5054479;28;20025;-66
2023/12/08 05:33:11;;;;;;;95.00;25.73;;;;;;;;;;5053108;28;20021;-66
2023/12/08 05:35:37;;;;;;;102.22;27.95;;;;;;;;;;5054481;28;20454;-66
2023/12/08 05:38:02;;;;;;;75.78;23.10;;;;;;;;;;5054565;28;20082;-66
2023/12/08 05:40:28;;;;;;;102.70;27.48;;;;;;;;;;5051873;28;20043;-66
2023/12/08 05:42:53;;;;;;;86.95;25.65;;;;;;;;;;5034367;28;20079;-67
2023/12/08 05:45:18;;;;;;;97.38;29.90;;;;;;;;;;5034474;28;20104;-67
2023/12/08 05:47:44;;;;;;;88.43;27.52;;;;;;;;;;5032801;28;20031;-67
2023/12/08 05:50:10;;;;;;;86.88;28.48;;;;;;;;;;5034368;28;20410;-67
2023/12/08 05:52:36;;;;;;;95.35;31.10;;;;;;;;;;5034226;28;20034;-67
2023/12/08 05:55:02;;;;;;;76.65;21.42;;;;;;;;;;5034472;28;20052;-67
2023/12/08 05:57:28;;;;;;;119.88;38.63;;;;;;;;;;5034331;28;20038;-67
2023/12/08 05:59:53;;;;;;;110.65;30.92;;;;;;;;;;5034430;28;20463;-67
2023/12/08 06:02:18;;;;;;;79.43;26.30;;;;;;;;;;5034209;28;20033;-67
2023/12/08 06:04:44;;;;;;;83.45;26.20;;;;;;;;;;5034272;28;20045;-68
2023/12/08 06:07:10;;;;;;;94.57;31.92;;;;;;;;;;5034154;28;20021;-67
2023/12/08 06:09:36;;;;;;;116.60;37.13;;;;;;;;;;5034087;28;20033;-68
2023/12/08 06:12:01;;;;;;;106.53;34.75;;;;;;;;;;5033919;28;20119;-65
2023/12/08 06:14:27;;;;;;;114.57;35.63;;;;;;;;;;5034046;28;20378;-66
2023/12/08 06:16:52;;;;;;;102.38;33.30;;;;;;;;;;5033682;28;20076;-67
2023/12/08 06:19:18;;;;;;;110.88;34.20;;;;;;;;;;5033768;28;20091;-67
2023/12/08 06:21:43;;;;;;;82.57;25.13;;;;;;;;;;5033932;28;20032;-65
2023/12/08 06:24:09;;;;;;;109.72;34.35;;;;;;;;;;5032438;28;20025;-67
2023/12/08 06:26:38;;;;;;;105.78;33.30;;;;;;;;;;5033712;28;20033;-67
2023/12/08 06:29:03;;;;;;;89.28;27.98;;;;;;;;;;5033668;28;20036;-67
2023/12/08 06:31:29;;;;;;;41.45;17.48;;;;;;;;;;5049883;28;20104;-67
2023/12/08 06:33:54;;;;;;;91.75;27.00;;;;;;;;;;5053410;28;20480;-68
2023/12/08 06:36:19;;;;;;;89.95;28.10;;;;;;;;;;5053406;28;20029;-65
2023/12/08 06:38:45;;;;;;;100.85;29.20;;;;;;;;;;5053395;28;20040;-65
2023/12/08 06:41:11;;;;;;;81.72;26.33;;;;;;;;;;5044848;28;20360;-65
2023/12/08 06:43:37;;;;;;;103.47;32.08;;;;;;;;;;5033368;28;20034;-65
2023/12/08 06:46:02;;;;;;;91.20;31.27;;;;;;;;;;5031881;28;20021;-66
2023/12/08 06:48:28;;;;;;;56.45;20.90;;;;;;;;;;5052045;28;20055;-66
2023/12/08 06:50:53;;;;;;;90.00;27.30;;;;;;;;;;5052976;28;20040;-66
2023/12/08 06:53:18;;;;;;;83.10;27.58;;;;;;;;;;5052794;28;20175;-65
2023/12/08 06:55:44;;;;;;;75.47;25.85;;;;;;;;;;5053117;28;20112;-66
2023/12/08 06:58:09;;;;;;;87.18;28.00;;;;;;;;;;5052893;28;20056;-65
2023/12/08 07:00:36;;;;;;;43.47;15.25;;;;;;;;;;5052823;28;20373;-67
2023/12/08 07:03:01;;;;;;;86.45;29.10;;;;;;;;;;5052917;28;20032;-67
2023/12/08 07:05:26;;;;;;;81.28;26.83;;;;;;;;;;5052953;28;20021;-66
2023/12/08 07:07:52;;;;;;;66.07;24.10;;;;;;;;;;5053022;28;20029;-67
2023/12/08 07:10:18;;;;;;;49.08;18.45;;;;;;;;;;5052923;28;20037;-67
2023/12/08 07:12:43;;;;;;;61.65;23.20;;;;;;;;;;5052840;28;20443;-67
2023/12/08 07:15:10;;;;;;;47.72;20.60;;;;;;;;;;5052651;28;20032;-66
2023/12/08 07:17:37;;;;;;;58.13;21.17;;;;;;;;;;5052773;28;20493;-66
2023/12/08 07:20:06;;;;;;;62.80;23.08;;;;;;;;;;5052621;28;20070;-66
2023/12/08 07:22:32;;;;;;;64.15;22.15;;;;;;;;;;5052647;28;20033;-66
2023/12/08 07:24:58;;;;;;;52.85;18.85;;;;;;;;;;5052749;28;20478;-66
2023/12/08 07:27:23;;;;;;;85.18;29.77;;;;;;;;;;5052665;28;20037;-66
2023/12/08 07:29:49;;;;;;;58.17;25.90;;;;;;;;;;5052382;28;20023;-67
2023/12/08 07:32:14;;;;;;;63.13;24.30;;;;;;;;;;5052444;28;20025;-67
2023/12/08 07:34:40;;;;;;;64.20;23.73;;;;;;;;;;5051997;28;20028;-65
2023/12/08 07:37:05;;;;;;;54.63;25.58;;;;;;;;;;5051914;28;20470;-65
2023/12/08 07:39:31;;;;;;;47.67;20.10;;;;;;;;;;5052064;28;20078;-66
2023/12/08 07:41:56;;;;;;;74.63;27.67;;;;;;;;;;5049263;28;20099;-66
2023/12/08 07:44:22;;;;;;;50.88;21.65;;;;;;;;;;5052000;28;20029;-65
2023/12/08 07:46:47;;;;;;;77.82;33.53;;;;;;;;;;5052064;28;20032;-66
2023/12/08 07:49:12;;;;;;;72.03;30.85;;;;;;;;;;5052032;28;20025;-66
2023/12/08 07:51:38;;;;;;;46.28;18.85;;;;;;;;;;5051853;28;20424;-66
2023/12/08 07:54:03;;;;;;;80.70;23.77;;;;;;;;;;5052160;28;20068;-67
2023/12/08 07:56:29;;;;;;;49.88;19.83;;;;;;;;;;5048175;28;20397;-66
2023/12/08 07:58:54;;;;;;;57.58;22.23;;;;;;;;;;5040406;28;20077;-66
2023/12/08 08:01:20;;;;;;;60.95;22.65;;;;;;;;;;5043603;28;20458;-66
2023/12/08 08:03:45;;;;;;;89.90;28.40;;;;;;;;;;5052086;28;20128;-66
2023/12/08 08:06:11;;;;;;;66.22;24.67;;;;;;;;;;5035320;28;20057;-66
2023/12/08 08:08:36;;;;;;;85.78;33.42;;;;;;;;;;5032090;28;20036;-66
2023/12/08 08:11:02;;;;;;;64.95;29.13;;;;;;;;;;5032041;28;20364;-66
2023/12/08 08:13:28;;;;;;;81.72;29.55;;;;;;;;;;5045122;28;20064;-67
2023/12/08 08:15:53;;;;;;;71.80;26.13;;;;;;;;;;5051970;28;20025;-66
2023/12/08 08:18:19;;;;;;;83.28;29.13;;;;;;;;;;5051616;28;20087;-66
2023/12/08 08:20:44;;;;;;;54.22;23.15;;;;;;;;;;5050786;28;20112;-66
2023/12/08 08:23:09;;;;;;;74.13;32.58;;;;;;;;;;5051886;28;20113;-66
2023/12/08 08:25:35;;;;;;;78.30;27.10;;;;;;;;;;5051801;28;20096;-66
2023/12/08 08:28:00;;;;;;;86.65;38.90;;;;;;;;;;5051630;28;20044;-66
2023/12/08 08:30:26;;;;;;;51.97;21.45;;;;;;;;;;5046590;28;20071;-67
2023/12/08 08:32:52;;;;;;;74.25;33.78;;;;;;;;;;5042751;28;20029;-67
2023/12/08 08:35:18;;;;;;;52.05;19.05;;;;;;;;;;5051641;28;20025;-67
2023/12/08 08:37:43;;;;;;;61.80;23.58;;;;;;;;;;5051926;28;20059;-67
2023/12/08 08:40:09;;;;;;;70.05;28.63;;;;;;;;;;5051706;28;20029;-67
2023/12/08 08:42:36;;;;;;;91.45;27.27;;;;;;;;;;5031511;28;20033;-67
2023/12/08 08:45:03;;;;;;;87.13;28.15;;;;;;;;;;5031511;28;20041;-67
2023/12/08 08:47:28;;;;;;;76.72;25.10;;;;;;;;;;5042550;28;20497;-67
2023/12/08 08:49:54;;;;;;;49.78;23.67;;;;;;;;;;5051597;28;20064;-66
2023/12/08 08:52:19;;;;;;;57.63;21.17;;;;;;;;;;5051525;28;20490;-66
2023/12/08 08:54:46;;;;;;;77.65;24.80;;;;;;;;;;5050965;28;20033;-66
2023/12/08 08:57:12;;;;;;;74.75;24.17;;;;;;;;;;5054885;28;20029;-67
2023/12/08 08:59:37;;;;;;;67.18;31.33;;;;;;;;;;5055276;28;20033;-66
2023/12/08 09:02:03;;;;;;;53.92;18.38;;;;;;;;;;5055123;28;20025;-66
2023/12/08 09:04:28;;;;;;;78.43;32.10;;;;;;;;;;5050888;28;20489;-66
2023/12/08 09:06:56;;;;;;;59.00;23.42;;;;;;;;;;5034900;28;20493;-67
2023/12/08 09:09:22;;;;;;;63.63;21.48;;;;;;;;;;5035083;28;20021;-66
2023/12/08 09:11:47;;;;;;;44.53;20.23;;;;;;;;;;5034874;28;20496;-67
2023/12/08 09:14:13;;;;;;;37.15;15.30;;;;;;;;;;5043268;28;20025;-66
2023/12/08 09:16:39;;;;;;;51.05;22.23;;;;;;;;;;5054861;28;20025;-67
2023/12/08 09:19:05;;;;;;;48.28;17.52;;;;;;;;;;5053601;28;20063;-67
2023/12/08 09:21:31;;;;;;;50.58;21.63;;;;;;;;;;5054850;28;20033;-67
2023/12/08 09:23:56;;;;;;;40.00;18.33;;;;;;;;;;5054889;28;20039;-67
2023/12/08 09:26:22;;;;;;;58.20;22.63;;;;;;;;;;5054463;28;20052;-67
2023/12/08 09:28:47;;;;;;;56.75;18.95;;;;;;;;;;5053517;28;20114;-67
2023/12/08 09:31:13;;;;;;;80.95;29.63;;;;;;;;;;5053154;28;20086;-67
2023/12/08 09:33:41;;;;;;;51.85;20.05;;;;;;;;;;5053235;28;20028;-66
2023/12/08 09:36:07;;;;;;;41.00;18.35;;;;;;;;;;5052924;28;20032;-67
2023/12/08 09:38:33;;;;;;;39.67;18.38;;;;;;;;;;5052785;28;20025;-66
2023/12/08 09:40:59;;;;;;;48.30;19.25;;;;;;;;;;5047486;28;20390;-67
2023/12/08 09:43:40;;;;;;;45.65;20.27;;;;;;;;;;5053056;28;20040;-67
2023/12/08 09:46:08;;;;;;;33.85;13.98;;;;;;;;;;5052547;28;20051;-66
2023/12/08 09:48:37;;;;;;;78.30;30.58;;;;;;;;;;5051201;28;20033;-67
2023/12/08 09:51:03;;;;;;;35.22;13.77;;;;;;;;;;5041687;28;20136;-67
2023/12/08 09:53:31;;;;;;;78.93;31.77;;;;;;;;;;5043655;28;20494;-67
2023/12/08 09:55:57;;;;;;;72.07;23.10;;;;;;;;;;5054133;28;20049;-67
2023/12/08 09:58:26;;;;;;;54.45;17.90;;;;;;;;;;5038588;28;20090;-67
2023/12/08 10:00:51;;;;;;;58.75;19.45;;;;;;;;;;5034117;28;20030;-67
2023/12/08 10:03:17;;;;;;;67.50;23.63;;;;;;;;;;5033913;28;20036;-67
2023/12/08 10:05:42;;;;;;;33.55;13.75;;;;;;;;;;5038913;28;20017;-67
2023/12/08 10:08:09;;;;;;;35.28;15.13;;;;;;;;;;5052763;28;20065;-67
2023/12/08 10:10:35;;;;;;;34.38;14.52;;;;;;;;;;5053952;28;20040;-67
2023/12/08 10:13:01;;;;;;;46.65;19.13;;;;;;;;;;5053857;28;20025;-66
2023/12/08 10:15:27;;;;;;;67.80;26.92;;;;;;;;;;5053762;28;20021;-67
2023/12/08 10:17:53;;;;;;;35.38;13.40;;;;;;;;;;5053633;28;20083;-66
2023/12/08 10:20:20;;;;;;;42.78;17.83;;;;;;;;;;5053525;28;20036;-67
2023/12/08 10:22:53;;;;;;;59.72;27.85;;;;;;;;;;5048152;28;20102;-67
2023/12/08 10:25:21;;;;;;;35.28;15.82;;;;;;;;;;5033703;28;20437;-66
2023/12/08 10:27:57;;;;;;;40.83;15.48;;;;;;;;;;5033393;28;20031;-66
2023/12/08 10:30:25;;;;;;;42.58;20.90;;;;;;;;;;5041526;28;20466;-66
2023/12/08 10:32:50;;;;;;;31.05;16.73;;;;;;;;;;5053343;28;20486;-67
2023/12/08 10:35:16;;;;;;;35.75;18.02;;;;;;;;;;5053269;28;20021;-66
2023/12/08 10:37:43;;;;;;;26.02;12.38;;;;;;;;;;5053051;28;20116;-66
2023/12/08 10:40:12;;;;;;;51.00;18.88;;;;;;;;;;5053185;28;20021;-67
2023/12/08 10:42:38;;;;;;;30.88;14.90;;;;;;;;;;5033281;28;20033;-66
2023/12/08 10:45:10;;;;;;;27.13;12.32;;;;;;;;;;5033252;28;20036;-67
2023/12/08 10:47:43;;;;;;;40.78;17.35;;;;;;;;;;5043668;28;20377;-66
2023/12/08 10:50:10;;;;;;;42.78;21.25;;;;;;;;;;5052923;28;20119;-67
2023/12/08 10:52:39;;;;;;;47.67;23.67;;;;;;;;;;5052533;28;20127;-66
2023/12/08 10:55:09;;;;;;;73.00;29.65;;;;;;;;;;5053066;28;20056;-66
2023/12/08 10:57:36;;;;;;;60.40;20.52;;;;;;;;;;5041845;28;20029;-66
2023/12/08 11:00:11;;;;;;;65.63;23.00;;;;;;;;;;5032951;28;20364;-67
2023/12/08 11:02:40;;;;;;;91.80;32.80;;;;;;;;;;5032908;28;20033;-67
2023/12/08 11:05:08;;;;;;;79.57;25.70;;;;;;;;;;5032912;28;20025;-67
2023/12/08 11:07:36;;;;;;;77.72;27.50;;;;;;;;;;5032587;28;20013;-67
2023/12/08 11:10:06;;;;;;;69.88;24.80;;;;;;;;;;5032751;28;20026;-67
2023/12/08 11:12:39;;;;;;;70.30;32.60;;;;;;;;;;5032748;28;20340;-67
2023/12/08 11:15:09;;;;;;;39.47;18.65;;;;;;;;;;5031460;28;20029;-67
2023/12/08 11:17:47;;;;;;;57.85;21.15;;;;;;;;;;5031014;28;20033;-67
2023/12/08 11:20:13;;;;;;;56.10;26.33;;;;;;;;;;5032572;28;20037;-67
2023/12/08 11:22:39;;;;;;;59.03;26.27;;;;;;;;;;5032479;28;20586;-67
2023/12/08 11:25:12;;;;;;;72.47;26.83;;;;;;;;;;5032786;28;20390;-67
2023/12/08 11:27:50;;;;;;;95.03;31.38;;;;;;;;;;5047849;28;20375;-67
2023/12/08 11:30:38;;;;;;;24.75;13.73;;;;;;;;;;5039616;28;20029;-67
2023/12/08 11:33:22;;;;;;;74.15;26.35;;;;;;;;;;5052111;28;20416;-67
2023/12/08 11:35:52;;;;;;;65.63;22.83;;;;;;;;;;5051981;28;20029;-65
2023/12/08 11:38:28;;;;;;;41.00;16.73;;;;;;;;;;5052232;28;20093;-66
2023/12/08 11:40:54;;;;;;;57.92;25.25;;;;;;;;;;5044826;28;20109;-65
2023/12/08 11:43:20;;;;;;;51.08;22.30;;;;;;;;;;5032406;28;20033;-65
2023/12/08 11:45:48;;;;;;;57.88;20.02;;;;;;;;;;5032405;28;20448;-66
2023/12/08 11:48:14;;;;;;;36.47;16.65;;;;;;;;;;5047966;28;20485;-67
2023/12/08 11:50:39;;;;;;;62.28;24.13;;;;;;;;;;5051947;28;20021;-69
2023/12/08 11:53:05;;;;;;;48.42;21.23;;;;;;;;;;5052022;28;20059;-66
2023/12/08 11:55:31;;;;;;;47.17;20.92;;;;;;;;;;5051960;28;20040;-65
2023/12/08 11:57:59;;;;;;;48.75;20.02;;;;;;;;;;5038082;28;20029;-65
2023/12/08 12:00:26;;;;;;;64.18;21.92;;;;;;;;;;5032072;28;20108;-66
2023/12/08 12:02:53;;;;;;;54.78;18.85;;;;;;;;;;5032146;28;20025;-67
2023/12/08 12:05:20;;;;;;;44.08;17.40;;;;;;;;;;5031667;28;20095;-66
2023/12/08 12:07:51;;;;;;;77.38;26.02;;;;;;;;;;5030694;28;20036;-65
2023/12/08 12:10:21;;;;;;;40.15;18.15;;;;;;;;;;5031968;28;20026;-68
2023/12/08 12:12:59;;;;;;;41.30;17.05;;;;;;;;;;5031967;28;20541;-68
2023/12/08 12:15:25;;;;;;;65.50;25.30;;;;;;;;;;5032026;28;20108;-64
2023/12/08 12:17:51;;;;;;;75.22;26.17;;;;;;;;;;5030419;28;20026;-65
2023/12/08 12:20:17;;;;;;;52.67;20.13;;;;;;;;;;5031470;28;20035;-68
2023/12/08 12:22:43;;;;;;;66.85;23.95;;;;;;;;;;5031761;28;20017;-66
2023/12/08 12:25:10;;;;;;;55.75;23.42;;;;;;;;;;5032042;28;20030;-65
2023/12/08 12:27:43;;;;;;;77.55;25.30;;;;;;;;;;5031654;28;20030;-65
2023/12/08 12:30:09;;;;;;;50.85;21.85;;;;;;;;;;5039010;28;20021;-65
2023/12/08 12:32:35;;;;;;;43.03;19.77;;;;;;;;;;5055565;28;20151;-64
2023/12/08 12:35:01;;;;;;;61.05;27.50;;;;;;;;;;5055455;28;20096;-65
2023/12/08 12:37:26;;;;;;;54.80;18.90;;;;;;;;;;5055272;28;20052;-65
2023/12/08 12:39:52;;;;;;;72.78;29.75;;;;;;;;;;5055506;28;20021;-67
2023/12/08 12:42:18;;;;;;;56.20;26.45;;;;;;;;;;5037901;28;20032;-66
2023/12/08 12:44:47;;;;;;;48.95;18.23;;;;;;;;;;5035468;28;20029;-66
2023/12/08 12:47:14;;;;;;;56.03;22.13;;;;;;;;;;5044190;28;20481;-66
2023/12/08 12:49:44;;;;;;;55.08;22.58;;;;;;;;;;5054985;28;20044;-66
2023/12/08 12:52:25;;;;;;;40.10;18.35;;;;;;;;;;5055151;28;20029;-66
2023/12/08 12:54:50;;;;;;;;;;;;;;;;;;5055854;28;20474;-67
2023/12/08 12:57:16;;;;;;;34.47;15.50;;;;;;;;;;5047028;28;19923;-66
2023/12/08 12:59:54;;;;;;;49.85;21.38;;;;;;;;;;5035475;28;20018;-66
2023/12/08 13:02:29;;;;;;;32.53;14.98;;;;;;;;;;5035280;28;20108;-66
2023/12/08 13:04:55;;;;;;;65.75;29.85;;;;;;;;;;5035221;28;20037;-66
2023/12/08 13:07:22;;;;;;;37.05;20.23;;;;;;;;;;5035021;28;20044;-66
2023/12/08 13:09:47;;;;;;;82.43;29.92;;;;;;;;;;5034854;28;20049;-65
2023/12/08 13:12:13;;;;;;;46.10;17.10;;;;;;;;;;5034917;28;20048;-65
2023/12/08 13:14:38;;;;;;;66.20;23.45;;;;;;;;;;5034949;28;20033;-65
2023/12/08 13:17:05;;;;;;;41.15;21.25;;;;;;;;;;5034544;28;20473;-65
2023/12/08 13:19:31;;;;;;;59.17;21.50;;;;;;;;;;5034597;28;20033;-65
2023/12/08 13:21:58;;;;;;;46.10;20.10;;;;;;;;;;5034826;28;20044;-66
2023/12/08 13:24:24;;;;;;;64.80;24.15;;;;;;;;;;5034732;28;20040;-66
2023/12/08 13:26:49;;;;;;;45.65;20.73;;;;;;;;;;5034715;28;20387;-66
2023/12/08 13:29:15;;;;;;;76.53;31.27;;;;;;;;;;5034611;28;20437;-66
2023/12/08 13:31:40;;;;;;;50.28;21.00;;;;;;;;;;5053158;28;20029;-66
2023/12/08 13:34:06;;;;;;;53.22;21.08;;;;;;;;;;5054318;28;20016;-66
2023/12/08 13:36:31;;;;;;;50.72;19.67;;;;;;;;;;5054308;28;20024;-66
2023/12/08 13:38:57;;;;;;;49.10;17.83;;;;;;;;;;5054218;28;20025;-66
2023/12/08 13:41:22;;;;;;;51.15;20.75;;;;;;;;;;5042910;28;20364;-66
2023/12/08 13:43:48;;;;;;;61.10;21.17;;;;;;;;;;5034504;28;20029;-66
2023/12/08 13:46:13;;;;;;;45.80;17.58;;;;;;;;;;5034637;28;20033;-65
2023/12/08 13:48:39;;;;;;;23.15;11.90;;;;;;;;;;5054196;28;20060;-66
2023/12/08 13:51:04;;;;;;;44.25;16.98;;;;;;;;;;5054357;28;20025;-65
2023/12/08 13:53:29;;;;;;;52.28;21.02;;;;;;;;;;5053815;28;20449;-65
2023/12/08 13:55:55;;;;;;;40.10;21.27;;;;;;;;;;5054232;28;20074;-65
2023/12/08 13:58:20;;;;;;;66.43;28.10;;;;;;;;;;5036611;28;20029;-67
2023/12/08 14:00:46;;;;;;;61.50;22.58;;;;;;;;;;5033583;28;20021;-67
2023/12/08 14:03:11;;;;;;;55.45;21.27;;;;;;;;;;5034069;28;20037;-66
2023/12/08 14:05:36;;;;;;;46.85;19.38;;;;;;;;;;5033996;28;20029;-67
2023/12/08 14:08:02;;;;;;;77.22;25.95;;;;;;;;;;5033926;28;20029;-68
2023/12/08 14:10:27;;;;;;;79.82;27.25;;;;;;;;;;5033743;28;20034;-67